Time;durP1;ratioP1;P1;durP2;ratioP2;P2;SDS_P1;SDS_P2;PMS_P1;PMS_P2;Temp;Humidity;BMP_temperature;BMP_pressure;BME280_temperature;BME280_humidity;BME280_pressure;Samples;Min_cycle;Max_cycle;Signal;HPM_P1;HPM_P2
2022/10/23 00:00:21;;;;;;;9.45;3.92;;;9.40;99.90;;;;;;4840078;29;20081;-85
2022/10/23 00:02:52;;;;;;;37.95;4.07;;;9.40;99.90;;;;;;4838369;29;20045;-85
2022/10/23 00:05:19;;;;;;;9.35;4.80;;;9.50;99.90;;;;;;4839920;29;20068;-85
2022/10/23 00:07:48;;;;;;;6.00;3.35;;;9.40;99.90;;;;;;4853929;29;20058;-85
2022/10/23 00:10:13;;;;;;;96.57;6.70;;;9.50;99.90;;;;;;4839993;29;20052;-84
2022/10/23 00:12:39;;;;;;;17.10;4.25;;;10.00;99.90;;;;;;4824237;29;20037;-85
2022/10/23 00:15:05;;;;;;;12.38;5.10;;;9.80;99.90;;;;;;4870201;29;20110;-84
2022/10/23 00:17:33;;;;;;;13.27;4.88;;;9.40;99.90;;;;;;4838956;29;20150;-85
2022/10/23 00:19:59;;;;;;;8.90;4.32;;;9.40;99.90;;;;;;4870231;29;20057;-84
2022/10/23 00:22:25;;;;;;;121.68;8.13;;;9.40;99.90;;;;;;4839077;29;20065;-85
2022/10/23 00:24:51;;;;;;;10.63;4.47;;;9.70;99.90;;;;;;4824346;29;20033;-85
2022/10/23 00:27:17;;;;;;;21.20;5.07;;;9.40;99.90;;;;;;4839582;29;20041;-85
2022/10/23 00:29:44;;;;;;;7.25;4.63;;;10.00;99.90;;;;;;4839475;29;20102;-84
2022/10/23 00:32:09;;;;;;;22.70;8.05;;;9.40;99.90;;;;;;4855387;29;20072;-85
2022/10/23 00:34:35;;;;;;;26.80;8.15;;;9.50;99.90;;;;;;4838325;29;20561;-85
2022/10/23 00:37:01;;;;;;;21.85;8.25;;;9.60;99.90;;;;;;4857253;29;20133;-85
2022/10/23 00:39:28;;;;;;;27.35;7.72;;;10.40;99.90;;;;;;4873511;29;20083;-85
2022/10/23 00:41:54;;;;;;;27.60;7.38;;;9.40;99.90;;;;;;4842274;29;20048;-85
2022/10/23 00:44:19;;;;;;;32.20;8.38;;;9.40;99.90;;;;;;4857485;29;20044;-85
2022/10/23 00:46:45;;;;;;;29.23;8.30;;;10.40;99.90;;;;;;4869534;29;20045;-85
2022/10/23 00:49:12;;;;;;;22.98;6.90;;;9.50;99.90;;;;;;4854188;29;20452;-85
2022/10/23 00:51:42;;;;;;;20.63;6.30;;;9.90;99.90;;;;;;4854210;29;20049;-85
2022/10/23 00:54:10;;;;;;;17.00;6.70;;;9.90;99.90;;;;;;4854868;29;20046;-84
2022/10/23 00:56:38;;;;;;;18.42;7.60;;;9.40;99.90;;;;;;4854720;29;20053;-85
2022/10/23 00:59:04;;;;;;;14.18;5.32;;;9.30;99.90;;;;;;4853753;29;20079;-85
2022/10/23 01:01:30;;;;;;;15.52;5.88;;;9.40;99.90;;;;;;4855122;29;20068;-85
2022/10/23 01:03:55;;;;;;;32.13;9.13;;;9.20;99.90;;;;;;4838305;29;20049;-85
2022/10/23 01:06:56;;;;;;;27.60;6.35;;;10.20;99.90;;;;;;4854501;29;20050;-85
2022/10/23 01:09:31;;;;;;;24.27;9.32;;;9.40;99.90;;;;;;4854755;29;20046;-86
2022/10/23 01:12:04;;;;;;;39.25;15.00;;;9.40;99.90;;;;;;4823083;29;20049;-85
2022/10/23 01:14:54;;;;;;;40.58;15.75;;;9.50;99.90;;;;;;4854864;29;20569;-86
2022/10/23 01:17:32;;;;;;;34.30;15.18;;;9.50;99.90;;;;;;4838379;29;20105;-85
2022/10/23 01:20:17;;;;;;;46.03;15.88;;;9.60;99.90;;;;;;4853202;29;20104;-85
2022/10/23 01:22:53;;;;;;;39.47;15.73;;;9.70;99.90;;;;;;4853607;29;20056;-85
2022/10/23 01:25:39;;;;;;;38.47;17.33;;;9.90;99.90;;;;;;4854198;29;20509;-85
2022/10/23 01:28:09;;;;;;;51.60;17.80;;;10.00;99.90;;;;;;4839117;29;20046;-85
2022/10/23 01:30:41;;;;;;;51.65;18.70;;;9.90;99.90;;;;;;4839701;29;20041;-85
2022/10/23 01:33:12;;;;;;;41.20;17.33;;;10.70;99.90;;;;;;4852961;29;20056;-85
2022/10/23 01:35:48;;;;;;;40.80;17.15;;;10.10;99.90;;;;;;4854837;29;20050;-85
2022/10/23 01:38:18;;;;;;;38.50;16.05;;;9.90;99.90;;;;;;4854537;29;20041;-85
2022/10/23 01:40:52;;;;;;;42.92;18.92;;;10.10;99.90;;;;;;4853196;29;20049;-85
2022/10/23 01:43:26;;;;;;;36.47;15.27;;;10.10;99.90;;;;;;4839396;29;20053;-86
2022/10/23 01:45:56;;;;;;;36.28;15.00;;;9.90;99.90;;;;;;4826425;29;20057;-85
2022/10/23 01:48:27;;;;;;;39.85;15.30;;;9.90;99.90;;;;;;4856410;29;20049;-85
2022/10/23 01:50:56;;;;;;;29.92;14.20;;;9.70;99.90;;;;;;4857416;29;20057;-85
2022/10/23 01:53:24;;;;;;;81.75;14.98;;;9.60;99.90;;;;;;4857012;29;20128;-85
2022/10/23 01:55:50;;;;;;;41.95;11.38;;;10.10;99.90;;;;;;4842311;29;20502;-85
2022/10/23 01:58:19;;;;;;;29.17;12.05;;;9.70;99.90;;;;;;4857055;29;20092;-86
2022/10/23 02:00:46;;;;;;;56.45;15.23;;;9.50;99.90;;;;;;4856585;29;20049;-85
2022/10/23 02:03:16;;;;;;;47.33;16.15;;;9.70;99.90;;;;;;4856734;29;20049;-85
2022/10/23 02:05:43;;;;;;;22.70;11.23;;;9.30;99.90;;;;;;4826733;29;20045;-85
2022/10/23 02:08:09;;;;;;;27.15;10.27;;;9.40;99.90;;;;;;4840898;29;20433;-85
2022/10/23 02:10:47;;;;;;;19.38;8.52;;;9.30;99.90;;;;;;4842269;29;20052;-85
2022/10/23 02:13:26;;;;;;;22.63;10.30;;;9.10;99.90;;;;;;4826243;29;20506;-86
2022/10/23 02:16:04;;;;;;;30.60;7.40;;;9.00;99.90;;;;;;4855815;29;20056;-85
2022/10/23 02:18:44;;;;;;;32.00;7.38;;;9.10;99.90;;;;;;4841124;29;20173;-86
2022/10/23 02:21:17;;;;;;;37.58;8.50;;;10.20;99.90;;;;;;4826703;29;20056;-85
2022/10/23 02:23:53;;;;;;;20.17;8.25;;;9.70;99.90;;;;;;4825601;29;20105;-85
2022/10/23 02:26:32;;;;;;;208.35;13.65;;;8.60;99.90;;;;;;4857568;29;20108;-85
2022/10/23 02:29:04;;;;;;;50.50;10.23;;;9.00;99.90;;;;;;4855484;29;20164;-85
2022/10/23 02:31:31;;;;;;;63.45;9.23;;;9.60;99.90;;;;;;4841761;29;20084;-85
2022/10/23 02:33:56;;;;;;;33.70;8.75;;;8.90;99.90;;;;;;4824976;29;20061;-85
2022/10/23 02:36:22;;;;;;;44.25;8.50;;;9.40;99.90;;;;;;4856581;29;20053;-85
2022/10/23 02:38:48;;;;;;;63.50;11.63;;;8.80;99.90;;;;;;4856424;29;20072;-86
2022/10/23 02:41:30;;;;;;;52.97;12.15;;;9.60;99.90;;;;;;4842140;29;20438;-85
2022/10/23 02:43:55;;;;;;;42.47;12.75;;;8.70;99.90;;;;;;4825280;29;20518;-86
2022/10/23 02:46:29;;;;;;;18.63;12.35;;;8.80;99.90;;;;;;4826750;29;20088;-85
2022/10/23 02:49:05;;;;;;;23.40;12.85;;;8.70;99.90;;;;;;4871343;29;20054;-85
2022/10/23 02:51:39;;;;;;;25.02;13.50;;;8.90;99.90;;;;;;4871688;29;20069;-85
2022/10/23 02:54:17;;;;;;;33.33;13.05;;;8.80;99.90;;;;;;4872111;29;20095;-86
2022/10/23 02:56:53;;;;;;;390.50;31.92;;;8.80;99.90;;;;;;4854844;29;20087;-85
2022/10/23 02:59:33;;;;;;;23.88;10.93;;;8.90;99.90;;;;;;4856661;29;20062;-85
2022/10/23 03:02:10;;;;;;;70.00;15.10;;;8.90;99.90;;;;;;4841162;29;20550;-86
2022/10/23 03:04:39;;;;;;;25.33;13.05;;;8.90;99.90;;;;;;4840284;29;20498;-85
2022/10/23 03:07:09;;;;;;;46.83;16.17;;;8.90;99.90;;;;;;4856727;29;20084;-85
2022/10/23 03:09:36;;;;;;;31.25;11.85;;;8.70;99.90;;;;;;4856702;29;20559;-85
2022/10/23 03:12:01;;;;;;;29.75;14.57;;;8.90;99.90;;;;;;4855818;29;20045;-86
2022/10/23 03:14:27;;;;;;;25.95;13.63;;;8.90;99.90;;;;;;4841317;29;20046;-86
2022/10/23 03:16:53;;;;;;;32.30;11.77;;;8.70;99.90;;;;;;4841460;29;20096;-85
2022/10/23 03:19:18;;;;;;;85.15;14.73;;;8.70;99.90;;;;;;4839730;29;20647;-85
2022/10/23 03:21:46;;;;;;;242.07;23.52;;;9.30;99.90;;;;;;4826214;29;20053;-86
2022/10/23 03:24:12;;;;;;;42.97;14.95;;;8.00;99.90;;;;;;4856482;29;20118;-85
2022/10/23 03:26:38;;;;;;;43.28;12.40;;;9.10;99.90;;;;;;4840705;29;20049;-85
2022/10/23 03:29:04;;;;;;;98.57;17.02;;;8.90;99.90;;;;;;4856616;29;20128;-85
2022/10/23 03:31:29;;;;;;;32.75;12.65;;;9.70;99.90;;;;;;4856299;29;20049;-85
2022/10/23 03:33:55;;;;;;;32.08;14.40;;;9.00;99.90;;;;;;4823938;29;20057;-86
2022/10/23 03:36:21;;;;;;;54.28;17.58;;;8.90;99.90;;;;;;4856508;29;20060;-85
2022/10/23 03:38:47;;;;;;;22.10;13.68;;;9.30;99.90;;;;;;4854900;29;20049;-85
2022/10/23 03:41:12;;;;;;;26.92;11.90;;;9.30;99.90;;;;;;4840883;29;20465;-85
2022/10/23 03:43:38;;;;;;;22.73;10.02;;;9.00;99.90;;;;;;4841112;29;20132;-85
2022/10/23 03:46:08;;;;;;;41.10;18.55;;;9.50;99.90;;;;;;4840468;29;20061;-85
2022/10/23 03:48:37;;;;;;;35.28;14.50;;;9.60;99.90;;;;;;4854697;29;20069;-85
2022/10/23 03:51:04;;;;;;;27.80;15.30;;;9.40;99.90;;;;;;4855348;29;20064;-86
2022/10/23 03:53:30;;;;;;;27.35;15.98;;;9.30;99.90;;;;;;4870466;29;20395;-86
2022/10/23 03:55:55;;;;;;;33.35;15.80;;;9.30;99.90;;;;;;4840115;29;20046;-85
2022/10/23 03:58:21;;;;;;;28.58;14.85;;;9.20;99.90;;;;;;4840131;29;20053;-86
2022/10/23 04:00:47;;;;;;;28.00;15.52;;;9.70;99.90;;;;;;4854522;29;20136;-85
2022/10/23 04:03:12;;;;;;;48.00;19.10;;;8.80;99.90;;;;;;4870421;29;20061;-85
2022/10/23 04:05:40;;;;;;;31.05;16.27;;;9.90;99.90;;;;;;4840231;29;20140;-86
2022/10/23 04:08:06;;;;;;;29.73;17.25;;;9.00;99.90;;;;;;4838610;29;20414;-85
2022/10/23 04:10:32;;;;;;;32.17;18.52;;;9.50;99.90;;;;;;4871278;29;20045;-86
2022/10/23 04:12:57;;;;;;;31.70;18.27;;;9.10;99.90;;;;;;4824552;29;20053;-86
2022/10/23 04:15:23;;;;;;;33.92;17.58;;;9.00;99.90;;;;;;4839753;29;20494;-86
2022/10/23 04:17:49;;;;;;;42.70;19.58;;;9.70;99.90;;;;;;4854194;29;20052;-86
2022/10/23 04:20:15;;;;;;;35.60;18.88;;;9.20;99.90;;;;;;4855993;29;20160;-85
2022/10/23 04:22:40;;;;;;;39.25;18.20;;;9.10;99.90;;;;;;4854409;29;20053;-86
2022/10/23 04:25:06;;;;;;;130.65;25.20;;;8.90;99.90;;;;;;4824775;29;20198;-86
2022/10/23 04:27:33;;;;;;;25.52;18.13;;;9.00;99.90;;;;;;4855071;29;20057;-86
2022/10/23 04:29:59;;;;;;;35.13;19.48;;;9.10;99.90;;;;;;4854112;29;20053;-86
2022/10/23 04:32:25;;;;;;;33.83;18.88;;;9.20;99.90;;;;;;4839783;29;20410;-86
2022/10/23 04:34:51;;;;;;;72.28;23.90;;;9.20;99.90;;;;;;4839626;29;20041;-86
2022/10/23 04:37:17;;;;;;;33.40;18.50;;;9.60;99.90;;;;;;4838840;29;20060;-86
2022/10/23 04:39:42;;;;;;;39.65;18.55;;;9.20;99.90;;;;;;4855050;29;20051;-85
2022/10/23 04:42:08;;;;;;;41.90;20.90;;;9.10;99.90;;;;;;4839273;29;20053;-86
2022/10/23 04:44:34;;;;;;;37.25;21.58;;;9.30;99.90;;;;;;4855300;29;20057;-85
2022/10/23 04:46:59;;;;;;;57.85;23.30;;;10.10;99.90;;;;;;4854583;29;20058;-85
2022/10/23 04:49:25;;;;;;;118.30;28.15;;;9.10;99.90;;;;;;4853839;29;20046;-86
2022/10/23 04:51:51;;;;;;;242.52;32.53;;;9.00;99.90;;;;;;4855045;29;20057;-85
2022/10/23 04:54:16;;;;;;;43.10;21.90;;;9.60;99.90;;;;;;4854669;29;20048;-85
2022/10/23 04:56:42;;;;;;;78.15;25.65;;;9.80;99.90;;;;;;4838706;29;20322;-86
2022/10/23 04:59:08;;;;;;;52.47;22.92;;;9.10;99.90;;;;;;4855009;29;20212;-86
2022/10/23 05:01:34;;;;;;;39.63;21.25;;;9.80;99.90;;;;;;4854799;29;20069;-86
2022/10/23 05:04:07;;;;;;;59.60;26.00;;;9.10;99.90;;;;;;4853688;29;20049;-86
2022/10/23 05:06:33;;;;;;;76.80;27.90;;;9.10;99.90;;;;;;4839723;29;20064;-85
2022/10/23 05:09:04;;;;;;;45.78;23.23;;;9.10;99.90;;;;;;4854933;29;20056;-87
2022/10/23 05:11:30;;;;;;;38.22;21.05;;;9.30;99.90;;;;;;4854130;29;20053;-86
2022/10/23 05:13:56;;;;;;;53.03;25.85;;;9.20;99.90;;;;;;4854542;29;20045;-86
2022/10/23 05:16:37;;;;;;;70.30;28.15;;;9.70;99.90;;;;;;4870405;29;20057;-85
2022/10/23 05:19:05;;;;;;;83.18;31.05;;;9.20;99.90;;;;;;4837875;29;20050;-86
2022/10/23 05:21:33;;;;;;;79.30;28.85;;;9.40;99.90;;;;;;4843905;29;20057;-86
2022/10/23 05:24:00;;;;;;;47.30;22.10;;;10.10;99.90;;;;;;4842439;29;20155;-86
2022/10/23 05:26:30;;;;;;;52.63;24.00;;;9.30;99.90;;;;;;4858169;29;20049;-86
2022/10/23 05:29:02;;;;;;;55.60;24.98;;;9.30;99.90;;;;;;4874431;29;20053;-86
2022/10/23 05:31:31;;;;;;;44.35;22.10;;;9.70;99.90;;;;;;4861161;29;20049;-86
2022/10/23 05:33:57;;;;;;;48.58;23.50;;;9.30;99.90;;;;;;4875669;29;20197;-85
2022/10/23 05:36:23;;;;;;;49.75;23.60;;;9.70;99.90;;;;;;4877749;29;20131;-86
2022/10/23 05:38:49;;;;;;;54.95;27.52;;;9.40;99.90;;;;;;4860312;29;20409;-86
2022/10/23 05:41:15;;;;;;;55.92;23.80;;;9.70;99.90;;;;;;4876821;29;20037;-86
2022/10/23 05:43:41;;;;;;;52.53;24.65;;;10.30;99.90;;;;;;4845679;29;20053;-86
2022/10/23 05:46:07;;;;;;;41.17;23.33;;;9.40;99.90;;;;;;4844977;29;20490;-86
2022/10/23 05:48:33;;;;;;;51.40;24.65;;;9.40;99.90;;;;;;4876471;29;20057;-86
2022/10/23 05:51:05;;;;;;;54.58;25.27;;;9.50;99.90;;;;;;4845533;29;20084;-86
2022/10/23 05:53:31;;;;;;;47.47;23.42;;;9.50;99.90;;;;;;4860848;29;20068;-86
2022/10/23 05:56:03;;;;;;;52.22;24.38;;;9.40;99.90;;;;;;4845126;29;20510;-85
2022/10/23 05:58:29;;;;;;;51.08;23.83;;;9.40;99.90;;;;;;4860926;29;20092;-86
2022/10/23 06:00:55;;;;;;;59.35;27.00;;;9.80;99.90;;;;;;4859619;29;20085;-85
2022/10/23 06:03:23;;;;;;;49.88;25.08;;;9.50;99.90;;;;;;4867198;29;20049;-86
2022/10/23 06:05:50;;;;;;;61.58;25.60;;;9.40;99.90;;;;;;4842172;29;20093;-85
2022/10/23 06:08:16;;;;;;;56.78;24.13;;;9.80;99.90;;;;;;4841395;29;20163;-86
2022/10/23 06:10:41;;;;;;;63.05;26.85;;;9.90;99.90;;;;;;4842452;29;20053;-87
2022/10/23 06:13:07;;;;;;;42.90;22.45;;;10.30;99.90;;;;;;4841959;29;20055;-86
2022/10/23 06:15:33;;;;;;;61.70;25.35;;;9.50;99.90;;;;;;4857362;29;20042;-86
2022/10/23 06:18:01;;;;;;;68.88;26.75;;;9.30;99.90;;;;;;4857031;29;20096;-86
2022/10/23 06:20:26;;;;;;;52.47;24.63;;;9.60;99.90;;;;;;4842182;29;20048;-85
2022/10/23 06:22:52;;;;;;;51.45;24.30;;;9.40;99.90;;;;;;4841299;29;20053;-86
2022/10/23 06:25:29;;;;;;;53.63;24.95;;;9.40;99.90;;;;;;4858146;29;20558;-86
2022/10/23 06:27:55;;;;;;;62.60;26.23;;;9.30;99.90;;;;;;4856251;29;20524;-86
2022/10/23 06:30:23;;;;;;;62.25;27.27;;;9.40;99.90;;;;;;4857027;29;20120;-86
2022/10/23 06:32:49;;;;;;;54.83;23.95;;;9.50;99.90;;;;;;4859147;29;20222;-87
2022/10/23 06:35:15;;;;;;;64.07;23.77;;;9.30;99.90;;;;;;4860385;29;20498;-86
2022/10/23 06:37:41;;;;;;;53.00;25.42;;;9.70;99.90;;;;;;4845399;29;20562;-87
2022/10/23 06:40:07;;;;;;;49.30;23.48;;;9.50;99.90;;;;;;4860812;29;20049;-87
2022/10/23 06:42:34;;;;;;;56.88;26.08;;;9.60;99.90;;;;;;4860421;29;20053;-87
2022/10/23 06:45:00;;;;;;;53.97;24.65;;;9.40;99.90;;;;;;4844785;29;20052;-87
2022/10/23 06:47:25;;;;;;;61.83;25.92;;;9.50;99.90;;;;;;4844683;29;20052;-87
2022/10/23 06:49:51;;;;;;;51.78;24.33;;;9.60;99.90;;;;;;4860320;29;20049;-86
2022/10/23 06:52:20;;;;;;;77.15;28.77;;;9.50;99.90;;;;;;4876106;29;20049;-85
2022/10/23 06:54:45;;;;;;;57.03;23.80;;;10.10;99.90;;;;;;4875840;29;20442;-87
2022/10/23 06:57:11;;;;;;;42.55;23.13;;;9.70;99.90;;;;;;4859567;29;20116;-87
2022/10/23 06:59:37;;;;;;;49.55;24.38;;;9.60;99.90;;;;;;4845388;29;20049;-85
2022/10/23 07:02:08;;;;;;;47.75;24.02;;;9.80;99.90;;;;;;4876385;29;20048;-87
2022/10/23 07:04:34;;;;;;;40.35;21.20;;;9.90;99.90;;;;;;4859803;29;20116;-86
2022/10/23 07:06:59;;;;;;;48.25;24.17;;;9.90;99.90;;;;;;4857765;29;20524;-86
2022/10/23 07:09:25;;;;;;;46.15;24.15;;;10.00;99.90;;;;;;4856696;29;20052;-87
2022/10/23 07:11:51;;;;;;;48.75;22.63;;;9.80;99.90;;;;;;4864482;29;20045;-87
2022/10/23 07:14:17;;;;;;;47.10;22.00;;;10.50;99.90;;;;;;4852714;29;20042;-85
2022/10/23 07:16:45;;;;;;;43.25;23.00;;;10.10;99.90;;;;;;4849948;29;20087;-86
2022/10/23 07:19:11;;;;;;;51.90;22.75;;;10.10;99.90;;;;;;4889596;29;20033;-86
2022/10/23 07:21:37;;;;;;;44.80;22.65;;;10.10;99.90;;;;;;4843989;29;20502;-86
2022/10/23 07:24:03;;;;;;;42.40;21.80;;;10.20;99.90;;;;;;4840775;29;20045;-87
2022/10/23 07:26:29;;;;;;;42.25;22.02;;;10.40;99.90;;;;;;4841713;29;20045;-87
2022/10/23 07:28:55;;;;;;;45.80;19.90;;;11.10;99.90;;;;;;4841363;29;20041;-85
2022/10/23 07:31:25;;;;;;;50.83;21.92;;;10.50;99.90;;;;;;4841019;29;20056;-85
2022/10/23 07:33:51;;;;;;;48.95;21.08;;;10.60;99.90;;;;;;4839784;29;20072;-85
2022/10/23 07:36:17;;;;;;;56.42;20.80;;;10.70;99.90;;;;;;4840856;29;20113;-86
2022/10/23 07:38:43;;;;;;;49.75;20.80;;;10.70;99.90;;;;;;4840165;29;20052;-87
2022/10/23 07:41:21;;;;;;;43.25;19.90;;;10.80;99.90;;;;;;4826424;29;20053;-87
2022/10/23 07:43:52;;;;;;;37.95;19.13;;;10.80;99.90;;;;;;4840205;29;20514;-86
2022/10/23 07:46:18;;;;;;;41.45;19.00;;;10.80;99.90;;;;;;4825269;29;20054;-87
2022/10/23 07:49:04;;;;;;;43.40;20.15;;;11.00;99.90;;;;;;4839913;29;20089;-86
2022/10/23 07:51:30;;;;;;;46.10;19.55;;;10.40;99.90;;;;;;4841330;29;20049;-86
2022/10/23 07:53:55;;;;;;;37.90;19.30;;;10.80;99.90;;;;;;4854479;29;20509;-86
2022/10/23 07:56:25;;;;;;;36.05;17.67;;;10.90;99.90;;;;;;4840482;29;20057;-86
2022/10/23 07:58:53;;;;;;;44.20;18.70;;;11.00;99.90;;;;;;4839931;29;20065;-86
2022/10/23 08:01:46;;;;;;;40.60;18.90;;;11.00;99.90;;;;;;4855978;29;20505;-86
2022/10/23 08:04:18;;;;;;;41.08;18.45;;;11.30;99.90;;;;;;4840364;29;20083;-87
2022/10/23 08:06:54;;;;;;;39.80;19.55;;;11.30;99.90;;;;;;4825248;29;20049;-87
2022/10/23 08:09:20;;;;;;;43.67;20.05;;;11.30;99.90;;;;;;4825632;29;20438;-86
2022/10/23 08:11:49;;;;;;;36.17;20.02;;;11.20;99.90;;;;;;4825243;29;20136;-87
2022/10/23 08:14:15;;;;;;;47.72;22.05;;;11.20;99.90;;;;;;4839516;29;20486;-87
2022/10/23 08:16:47;;;;;;;37.42;20.67;;;11.30;99.90;;;;;;4840323;29;20053;-86
2022/10/23 08:19:13;;;;;;;41.00;20.75;;;11.30;99.90;;;;;;4854935;29;20081;-86
2022/10/23 08:21:41;;;;;;;42.92;20.17;;;11.50;99.90;;;;;;4839858;29;20156;-87
2022/10/23 08:24:12;;;;;;;39.67;20.00;;;11.50;99.90;;;;;;4848031;29;20047;-87
2022/10/23 08:26:37;;;;;;;39.90;19.67;;;11.60;99.90;;;;;;4873596;29;20314;-86
2022/10/23 08:29:03;;;;;;;43.35;23.00;;;11.60;99.90;;;;;;4872080;29;20072;-86
2022/10/23 08:31:29;;;;;;;41.88;19.52;;;11.60;99.90;;;;;;4873738;29;20112;-86
2022/10/23 08:33:54;;;;;;;37.03;19.33;;;11.60;99.90;;;;;;4869373;29;20129;-86
2022/10/23 08:36:23;;;;;;;45.65;17.70;;;11.80;99.90;;;;;;4839028;29;20061;-86
2022/10/23 08:38:50;;;;;;;39.90;16.90;;;11.90;99.90;;;;;;4838587;29;20049;-85
2022/10/23 08:41:36;;;;;;;29.52;15.48;;;12.30;99.90;;;;;;4862798;29;20049;-86
2022/10/23 08:44:17;;;;;;;38.13;21.27;;;11.90;99.90;;;;;;4873361;29;20041;-87
2022/10/23 08:46:46;;;;;;;33.20;18.98;;;11.80;99.90;;;;;;4838780;29;20053;-86
2022/10/23 08:49:29;;;;;;;39.38;18.60;;;12.00;99.90;;;;;;4838257;29;20502;-86
2022/10/23 08:51:57;;;;;;;47.90;30.55;;;12.00;99.90;;;;;;4840633;29;20045;-87
2022/10/23 08:54:26;;;;;;;47.75;26.08;;;12.20;99.90;;;;;;4843496;29;20124;-88
2022/10/23 08:57:02;;;;;;;34.85;17.63;;;12.30;99.90;;;;;;4846286;29;20061;-86
2022/10/23 08:59:38;;;;;;;26.33;13.30;;;12.40;99.90;;;;;;4831090;29;20053;-86
2022/10/23 09:02:18;;;;;;;28.92;14.57;;;12.30;99.90;;;;;;4847069;29;20057;-87
2022/10/23 09:04:46;;;;;;;28.83;13.88;;;12.50;99.90;;;;;;4831170;29;20045;-87
2022/10/23 09:07:25;;;;;;;33.28;14.27;;;12.50;99.90;;;;;;4846581;29;20506;-86
2022/10/23 09:10:04;;;;;;;55.08;23.38;;;12.50;99.90;;;;;;4861727;29;20053;-87
2022/10/23 09:12:32;;;;;;;42.83;18.55;;;12.50;99.90;;;;;;4861927;29;20554;-87
2022/10/23 09:15:33;;;;;;;33.38;13.75;;;12.90;99.90;;;;;;4862267;29;21070;-88
2022/10/23 09:18:06;;;;;;;28.63;12.85;;;12.70;99.90;;;;;;4848378;29;20462;-88
2022/10/23 09:20:34;;;;;;;37.30;14.68;;;12.90;99.90;;;;;;4880891;29;20530;-87
2022/10/23 09:23:06;;;;;;;27.45;12.77;;;13.00;99.90;;;;;;4879578;29;20109;-88
2022/10/23 09:25:37;;;;;;;38.38;12.02;;;13.10;99.90;;;;;;4865321;29;20056;-88
2022/10/23 09:28:06;;;;;;;26.27;11.70;;;13.00;99.90;;;;;;4863383;29;20069;-88
2022/10/23 09:30:37;;;;;;;22.13;12.65;;;13.10;99.90;;;;;;4879549;29;20053;-87
2022/10/23 09:33:14;;;;;;;23.42;11.00;;;13.20;99.90;;;;;;4863185;29;20508;-87
2022/10/23 09:35:55;;;;;;;23.15;10.70;;;13.30;99.90;;;;;;4879104;29;20045;-87
2022/10/23 09:38:26;;;;;;;27.95;12.65;;;13.30;99.90;;;;;;4880462;29;20061;-88
2022/10/23 09:40:52;;;;;;;28.33;11.43;;;13.50;99.90;;;;;;4880198;29;20045;-87
2022/10/23 09:43:22;;;;;;;21.25;10.65;;;13.50;99.90;;;;;;4864943;29;20052;-88
2022/10/23 09:45:57;;;;;;;24.25;10.13;;;13.60;99.90;;;;;;4864821;29;20045;-89
2022/10/23 09:48:26;;;;;;;27.95;10.43;;;13.70;99.90;;;;;;4864927;29;20056;-87
2022/10/23 09:50:56;;;;;;;38.47;9.90;;;13.80;99.90;;;;;;4896018;29;20048;-87
2022/10/23 09:53:39;;;;;;;19.88;10.20;;;13.80;99.90;;;;;;4864753;29;20055;-88
2022/10/23 09:56:27;;;;;;;21.05;9.43;;;13.80;99.90;;;;;;4865188;29;20126;-87
2022/10/23 09:58:59;;;;;;;26.30;9.90;;;13.90;99.90;;;;;;4880170;29;20060;-88
2022/10/23 10:01:27;;;;;;;18.20;9.48;;;14.10;99.90;;;;;;4849866;29;20056;-90
2022/10/23 10:03:53;;;;;;;26.42;9.00;;;13.90;99.90;;;;;;4836643;29;20058;-90
2022/10/23 10:06:26;;;;;;;21.38;8.32;;;14.00;99.90;;;;;;4857544;29;20055;-93
2022/10/23 10:08:56;;;;;;;18.25;8.45;;;14.10;99.90;;;;;;4859265;29;20056;-88
2022/10/23 10:11:41;;;;;;;28.13;8.82;;;14.20;99.90;;;;;;4862197;29;20041;-88
2022/10/23 10:14:25;;;;;;;26.20;9.27;;;14.20;99.90;;;;;;4843968;29;20081;-88
2022/10/23 10:16:54;;;;;;;21.58;7.93;;;14.20;99.90;;;;;;4838651;29;20094;-87
2022/10/23 10:19:25;;;;;;;26.65;8.13;;;14.20;99.90;;;;;;4861556;29;20140;-87
2022/10/23 10:22:07;;;;;;;16.55;7.10;;;14.40;99.90;;;;;;4876700;29;20100;-88
2022/10/23 10:25:00;;;;;;;26.25;7.68;;;14.40;99.90;;;;;;4844501;29;20057;-87
2022/10/23 10:27:42;;;;;;;15.77;7.35;;;14.60;99.90;;;;;;4842427;29;20065;-88
2022/10/23 10:30:12;;;;;;;17.88;7.45;;;14.60;99.90;;;;;;4843215;29;20050;-87
2022/10/23 10:32:52;;;;;;;18.08;6.70;;;14.70;99.90;;;;;;4842883;29;20056;-87
2022/10/23 10:35:39;;;;;;;11.45;6.32;;;14.70;99.90;;;;;;4834080;29;20190;-86
2022/10/23 10:38:19;;;;;;;21.48;7.95;;;14.80;99.90;;;;;;4857850;29;20405;-86
2022/10/23 10:41:02;;;;;;;25.85;7.75;;;14.90;99.90;;;;;;4841394;29;20491;-85
2022/10/23 10:43:34;;;;;;;;;;;15.00;99.90;;;;;;4858053;29;20045;-86
2022/10/23 10:46:08;;;;;;;21.80;5.85;;;14.90;99.90;;;;;;4841827;29;19924;-86
2022/10/23 10:48:40;;;;;;;16.40;5.15;;;15.10;99.90;;;;;;4841609;29;20486;-88
2022/10/23 10:51:19;;;;;;;26.73;5.85;;;15.20;99.90;;;;;;4842595;29;20046;-87
2022/10/23 10:53:53;;;;;;;22.20;6.03;;;15.10;99.90;;;;;;4827055;29;20049;-87
2022/10/23 10:56:22;;;;;;;18.15;5.82;;;15.20;99.90;;;;;;4826851;29;20049;-87
2022/10/23 10:59:02;;;;;;;15.70;5.78;;;15.30;99.90;;;;;;4826091;29;20053;-86
2022/10/23 11:01:40;;;;;;;11.32;4.88;;;15.30;99.90;;;;;;4827410;29;20057;-87
2022/10/23 11:04:25;;;;;;;14.95;5.47;;;15.30;99.90;;;;;;4844230;29;20049;-87
2022/10/23 11:06:53;;;;;;;10.35;4.72;;;15.30;99.90;;;;;;4847871;29;20044;-85
2022/10/23 11:09:25;;;;;;;11.02;4.95;;;15.40;99.90;;;;;;4865420;29;20135;-85
2022/10/23 11:11:51;;;;;;;13.50;5.18;;;15.50;99.90;;;;;;4870834;29;20172;-84
2022/10/23 11:14:23;;;;;;;16.25;5.63;;;15.50;99.90;;;;;;4870528;29;20074;-85
2022/10/23 11:16:58;;;;;;;14.00;5.47;;;15.50;99.90;;;;;;4868833;29;20112;-84
2022/10/23 11:19:29;;;;;;;14.32;6.00;;;15.60;99.90;;;;;;4834414;29;20052;-84
2022/10/23 11:22:15;;;;;;;18.45;5.50;;;15.60;99.90;;;;;;4865990;29;20045;-86
2022/10/23 11:25:07;;;;;;;14.85;5.05;;;15.60;99.90;;;;;;4857468;29;20045;-85
2022/10/23 11:27:33;;;;;;;15.23;4.60;;;15.70;99.90;;;;;;4874090;29;20057;-84
2022/10/23 11:30:20;;;;;;;10.07;4.03;;;15.80;99.90;;;;;;4842896;29;20063;-85
2022/10/23 11:33:03;;;;;;;12.90;4.53;;;15.80;99.90;;;;;;4871962;29;20041;-86
2022/10/23 11:35:42;;;;;;;16.40;5.18;;;15.90;99.90;;;;;;4858294;29;20128;-86
2022/10/23 11:38:16;;;;;;;9.98;4.40;;;15.90;99.90;;;;;;4842460;29;20060;-86
2022/10/23 11:40:47;;;;;;;11.32;4.45;;;15.90;99.90;;;;;;4858273;29;20045;-86
2022/10/23 11:43:25;;;;;;;9.68;4.10;;;15.90;99.90;;;;;;4857901;29;20136;-86
2022/10/23 11:45:51;;;;;;;32.20;7.47;;;15.90;99.90;;;;;;4887902;29;20045;-86
2022/10/23 11:48:38;;;;;;;11.98;5.07;;;15.90;99.90;;;;;;4857473;29;20060;-86
2022/10/23 11:51:04;;;;;;;27.40;4.72;;;15.90;99.90;;;;;;4857957;29;20189;-86
2022/10/23 11:53:30;;;;;;;17.67;5.18;;;15.90;99.90;;;;;;4858038;29;20053;-86
2022/10/23 11:56:22;;;;;;;17.42;5.03;;;15.90;99.90;;;;;;4872924;29;20398;-85
2022/10/23 11:58:54;;;;;;;13.35;6.07;;;16.00;99.90;;;;;;4856460;29;20053;-85
2022/10/23 12:01:42;;;;;;;12.82;3.78;;;15.90;99.90;;;;;;4858049;29;20160;-85
2022/10/23 12:04:11;;;;;;;12.95;3.40;;;15.90;99.90;;;;;;4842746;29;20060;-85
2022/10/23 12:06:43;;;;;;;11.57;3.50;;;15.90;99.90;;;;;;4834969;29;20402;-85
2022/10/23 12:09:38;;;;;;;13.00;3.38;;;15.90;99.90;;;;;;4839443;29;20056;-85
2022/10/23 12:12:07;;;;;;;15.35;3.88;;;15.90;99.90;;;;;;4839497;29;20045;-85
2022/10/23 12:14:38;;;;;;;15.48;3.60;;;15.80;99.90;;;;;;4824271;29;20481;-85
2022/10/23 12:17:31;;;;;;;13.05;4.57;;;15.80;99.90;;;;;;4839422;29;20045;-85
2022/10/23 12:20:07;;;;;;;19.17;7.10;;;15.80;99.90;;;;;;4822998;29;20092;-85
2022/10/23 12:22:46;;;;;;;16.15;4.72;;;15.90;99.90;;;;;;4824094;29;20129;-85
2022/10/23 12:25:26;;;;;;;14.05;4.60;;;15.80;99.90;;;;;;4854964;29;20117;-85
2022/10/23 12:27:59;;;;;;;14.13;4.30;;;15.80;99.90;;;;;;4852850;29;20053;-84
2022/10/23 12:30:32;;;;;;;23.45;4.88;;;15.80;99.90;;;;;;4838408;29;20056;-85
2022/10/23 12:33:10;;;;;;;13.73;4.25;;;15.80;99.90;;;;;;4837968;29;20045;-85
2022/10/23 12:36:03;;;;;;;13.30;4.53;;;15.80;99.90;;;;;;4823323;29;20059;-85
2022/10/23 12:38:29;;;;;;;16.20;4.00;;;15.80;99.90;;;;;;4823329;29;20489;-85
2022/10/23 12:41:10;;;;;;;10.73;4.10;;;15.90;99.90;;;;;;4837801;29;20494;-85
2022/10/23 12:43:37;;;;;;;18.58;4.28;;;15.90;99.90;;;;;;4854125;29;20053;-85
2022/10/23 12:46:20;;;;;;;14.52;4.22;;;15.90;99.90;;;;;;4853778;29;20405;-85
2022/10/23 12:48:48;;;;;;;16.52;4.15;;;16.00;99.90;;;;;;4852126;29;20056;-85
2022/10/23 12:51:22;;;;;;;8.65;3.75;;;16.10;99.90;;;;;;4838948;29;20057;-85
2022/10/23 12:53:48;;;;;;;14.15;3.80;;;16.00;99.90;;;;;;4853196;29;20447;-84